Latest Weather Observations for Sheoaks

IDV60801

Issued at 8:05 pm EST Tuesday 23 September 2014 (issued every 30 minutes, with the page automatically refreshed every 10 minutes)

About weather observations | Map of weather stations | Latest weather observations for VIC | Other Formats
Station Details ID: 087168 Name: SHEOAKS Lat: -37.91 Lon: 144.13 Height: 236.7 m
Data from the previous 72 hours. | See also: Recent months at Sheoaks
Date/Time
EST
Temp
°C
App
Temp
°C
Dew
Point
Rel
Hum
%
Delta-T
°C
Wind Press
QNH
hPa
Press
MSL
hPa
Rain
since 9 am
mm
Dir
 
Spd
km/h
Gust
km/h
Spd
kts
Gust
kts
23/08:00pm 17.8 15.1 7.2 50 5.4 N 11 19 6 10 1021.5 1021.6 0.0
23/07:30pm 16.2 13.8 6.9 54 4.6 N 9 13 5 7 1021.6 1021.7 0.0
23/07:00pm 16.6 15.1 6.7 52 4.9 N 4 6 2 3 1021.4 1021.5 0.0
23/06:30pm 18.4 16.6 5.6 43 6.3 N 4 7 2 4 1021.4 1021.5 0.0
23/06:00pm 20.0 18.2 5.3 38 7.3 N 4 6 2 3 1021.5 1021.6 0.0
23/05:30pm 20.1 17.4 5.4 38 7.3 N 9 15 5 8 1021.6 1021.7 0.0
23/05:00pm 22.0 18.4 5.0 33 8.5 NNW 13 22 7 12 1021.6 1021.7 0.0
23/04:30pm 22.1 18.2 5.5 34 8.4 NNW 15 22 8 12 1021.7 1021.8 0.0
23/04:00pm 22.4 19.4 5.8 34 8.4 N 11 20 6 11 1022.0 1022.2 0.0
23/03:30pm 22.7 19.0 6.5 35 8.4 N 15 24 8 13 1022.2 1022.4 0.0
23/03:00pm 22.4 17.6 5.4 33 8.6 N 20 28 11 15 1022.4 1022.6 0.0
23/02:30pm 23.1 20.0 5.5 32 9.0 NNW 11 20 6 11 1023.1 1023.3 0.0
23/02:00pm 22.7 18.8 5.2 32 8.8 NNW 15 30 8 16 1023.4 1023.6 0.0
23/01:30pm 22.6 18.7 5.5 33 8.7 NNW 15 26 8 14 1023.6 1023.8 0.0
23/01:00pm 22.6 18.5 4.2 30 9.1 N 15 26 8 14 1023.9 1024.1 0.0
23/12:30pm 22.5 18.6 3.6 29 9.2 NNW 13 28 7 15 1024.2 1024.4 0.0
23/12:00pm 22.9 19.1 5.8 33 8.7 N 15 24 8 13 1024.5 1024.7 0.0
23/11:30am 22.6 18.9 4.6 31 9.0 NNW 13 26 7 14 1025.0 1025.1 0.0
23/11:00am 21.9 17.1 4.9 33 8.4 NNW 19 30 10 16 1025.5 1025.7 0.0
23/10:30am 21.8 18.0 5.7 35 8.2 NNW 15 22 8 12 1025.8 1026.0 0.0
23/10:00am 20.9 16.8 6.1 38 7.5 N 17 26 9 14 1025.9 1026.1 0.0
23/09:30am 19.6 15.0 5.6 40 7.0 N 19 26 10 14 1026.1 1026.3 0.0
23/09:00am 18.8 14.7 6.0 43 6.4 N 17 26 9 14 1026.2 1026.4 0.0
23/08:30am 17.2 13.0 5.5 46 5.7 N 17 24 9 13 1026.3 1026.5 0.0
23/08:00am 15.4 11.0 4.5 48 5.1 N 17 28 9 15 1026.2 1026.4 0.0
23/07:30am 12.4 9.5 4.4 58 3.7 N 9 15 5 8 1026.3 1026.5 0.0
23/07:00am 8.8 5.6 2.8 66 2.6 N 9 13 5 7 1026.2 1026.4 0.0
23/06:30am 7.6 3.9 2.5 70 2.2 N 11 15 6 8 1025.9 1026.1 0.0
23/06:00am 6.8 3.5 2.7 75 1.7 N 9 11 5 6 1025.8 1026.0 0.0
23/05:30am 6.4 2.8 2.9 78 1.5 N 11 13 6 7 1025.7 1025.9 0.0
23/05:00am 6.2 2.6 2.8 79 1.4 N 11 13 6 7 1025.7 1025.9 0.0
23/04:30am 6.0 2.4 3.0 81 1.3 NNW 11 13 6 7 1025.5 1025.7 0.0
23/04:00am 6.1 2.9 3.1 81 1.3 N 9 11 5 6 1025.4 1025.5 0.0
23/03:30am 7.5 4.8 3.6 76 1.7 NNW 7 7 4 4 1025.2 1025.3 0.0
23/03:00am 8.3 5.6 3.8 73 2.0 NNW 7 9 4 5 1025.4 1025.5 0.0
23/02:30am 9.6 7.0 4.2 69 2.4 NNW 7 11 4 6 1025.6 1025.8 0.0
23/02:00am 9.6 5.9 4.4 70 2.3 NNW 13 17 7 9 1025.8 1026.0 0.0
23/01:30am 9.4 5.3 4.4 71 2.2 N 15 17 8 9 1026.0 1026.2 0.0
23/01:00am 9.7 6.4 4.3 69 2.4 N 11 13 6 7 1026.5 1026.7 0.0
23/12:30am 10.1 6.8 4.7 69 2.5 N 11 15 6 8 1026.7 1026.9 0.0
23/12:00am 9.9 6.6 4.7 70 2.3 N 11 15 6 8 1026.7 1026.9 0.0
 
Date/Time
EST
Temp
°C
App
Temp
°C
Dew
Point
Rel
Hum
%
Delta-T
°C
Wind Press
QNH
hPa
Press
MSL
hPa
Rain
since 9 am
mm
Dir
 
Spd
km/h
Gust
km/h
Spd
kts
Gust
kts
22/11:30pm 9.8 6.1 4.6 70 2.4 N 13 17 7 9 1026.9 1027.1 0.0
22/11:00pm 9.6 6.0 4.8 72 2.2 NNW 13 15 7 8 1027.1 1027.3 0.0
22/10:30pm 10.3 6.8 5.5 72 2.2 N 13 17 7 9 1027.4 1027.6 0.0
22/10:00pm 10.2 7.2 6.0 75 2.0 N 11 15 6 8 1027.5 1027.7 0.0
22/09:30pm 8.6 6.2 5.2 79 1.5 N 7 9 4 5 1027.5 1027.7 0.0
22/09:00pm 10.4 8.3 5.8 73 2.1 N 6 7 3 4 1027.5 1027.7 0.0
22/08:30pm 10.9 8.5 5.4 69 2.6 N 7 11 4 6 1027.3 1027.5 0.0
22/08:00pm 11.2 8.9 5.5 68 2.6 N 7 9 4 5 1027.2 1027.4 0.0
22/07:30pm 12.7 10.9 5.6 62 3.4 ENE 4 9 2 5 1027.0 1027.2 0.0
22/07:00pm 15.6 13.9 6.1 53 4.6 NNE 4 6 2 3 1026.5 1026.7 0.0
22/06:30pm 16.3 14.0 5.6 49 5.2 ENE 7 7 4 4 1026.3 1026.5 0.0
22/06:00pm 16.2 14.1 6.6 53 4.7 E 7 9 4 5 1026.3 1026.5 0.0
22/05:30pm 18.1 15.7 7.2 49 5.5 E 9 11 5 6 1026.1 1026.3 0.0
22/05:00pm 19.5 17.2 7.3 45 6.2 E 9 13 5 7 1025.9 1026.1 0.0
22/04:30pm 20.4 18.2 7.7 44 6.6 ESE 9 13 5 7 1025.8 1026.0 0.0
22/04:00pm 21.2 19.6 7.8 42 7.0 E 6 11 3 6 1025.7 1025.9 0.0
22/03:30pm 21.6 18.2 3.8 31 8.7 NW 11 17 6 9 1025.6 1025.8 0.0
22/03:00pm 21.5 18.6 4.6 33 8.3 NW 9 15 5 8 1025.8 1026.0 0.0
22/02:30pm 21.5 18.8 3.7 31 8.7 NNW 7 15 4 8 1026.1 1026.3 0.0
22/02:00pm 21.3 18.4 2.6 29 8.8 W 7 13 4 7 1026.3 1026.5 0.0
22/01:30pm 20.9 17.9 4.0 33 8.2 NNW 9 15 5 8 1026.7 1026.9 0.0
22/01:00pm 20.6 16.6 5.0 36 7.7 W 15 22 8 12 1026.9 1027.1 0.0
22/12:30pm 20.5 17.1 4.1 34 8.0 NNW 11 20 6 11 1027.3 1027.5 0.0
22/12:00pm 20.0 16.4 2.8 32 8.1 NNW 11 19 6 10 1027.7 1027.9 0.0
22/11:30am 19.6 16.1 3.3 34 7.8 WNW 11 20 6 11 1028.1 1028.3 0.0
22/11:00am 19.3 16.5 5.0 39 7.0 NW 9 17 5 9 1028.4 1028.6 0.0
22/10:30am 17.8 15.6 5.1 43 6.2 WNW 6 13 3 7 1028.7 1028.9 0.0
22/10:00am 16.7 14.6 6.8 52 4.9 W 7 11 4 6 1029.0 1029.3 0.0
22/09:30am 15.9 14.4 8.6 62 3.8 NW 6 9 3 5 1029.3 1029.5 0.0
22/09:00am 13.7 11.8 7.7 67 3.0 N 7 9 4 5 1029.4 1029.6 0.2
22/08:30am 10.2 8.1 6.7 79 1.7 N 7 9 4 5 1029.5 1029.7 0.2
22/08:00am 7.2 4.4 5.2 87 0.9 N 9 11 5 6 1029.3 1029.5 0.2
22/07:30am 4.7 1.7 4.0 95 0.3 N 9 11 5 6 1029.0 1029.3 0.2
22/07:00am 2.7 -1.0 2.4 98 0.1 N 11 13 6 7 1028.8 1029.0 0.2
22/06:30am 1.9 -1.5 1.6 98 0.1 N 9 9 5 5 1028.6 1028.8 0.0
22/06:00am 2.1 -0.9 2.0 99 0.0 N 7 9 4 5 1028.4 1028.6 0.0
22/05:30am 1.9 -1.1 1.8 99 0.0 N 7 7 4 4 1028.2 1028.4 0.0
22/05:00am 1.5 -2.4 1.4 99 0.0 N 11 13 6 7 1028.0 1028.2 0.0
22/04:30am 0.6 -2.7 0.3 98 0.1 N 7 9 4 5 1027.9 1028.1 0.0
22/04:00am 1.0 -2.6 0.9 99 0.0 N 9 11 5 6 1028.0 1028.2 0.0
22/03:30am 0.5 -2.8 0.2 98 0.1 N 7 9 4 5 1028.2 1028.4 0.0
22/03:00am 0.5 -2.8 0.2 98 0.1 N 7 9 4 5 1028.2 1028.4 0.0
22/02:30am 1.0 -2.2 0.7 98 0.1 N 7 9 4 5 1028.5 1028.7 0.0
22/02:00am 1.7 -1.2 1.3 97 0.2 N 6 7 3 4 1028.9 1029.1 0.0
22/01:30am 2.2 -1.2 1.9 98 0.1 N 9 11 5 6 1029.0 1029.3 0.0
22/01:00am 2.1 -1.3 1.7 97 0.2 N 9 11 5 6 1029.3 1029.5 0.0
22/12:30am 2.8 -0.9 2.4 97 0.2 N 11 13 6 7 1029.3 1029.5 0.0
22/12:00am 2.9 -0.4 2.5 97 0.2 N 9 11 5 6 1029.5 1029.7 0.0
 
Date/Time
EST
Temp
°C
App
Temp
°C
Dew
Point
Rel
Hum
%
Delta-T
°C
Wind Press
QNH
hPa
Press
MSL
hPa
Rain
since 9 am
mm
Dir
 
Spd
km/h
Gust
km/h
Spd
kts
Gust
kts
21/11:30pm 3.3 0.0 2.7 96 0.2 N 9 11 5 6 1029.6 1029.8 0.0
21/11:00pm 3.5 0.3 2.8 95 0.3 N 9 11 5 6 1029.9 1030.1 0.0
21/10:30pm 4.2 1.4 3.3 94 0.4 N 7 9 4 5 1029.9 1030.1 0.0
21/10:00pm 5.2 3.1 4.0 92 0.5 NE 4 6 2 3 1030.3 1030.5 0.0
21/09:30pm 5.8 3.4 4.1 89 0.7 NNE 6 7 3 4 1030.4 1030.6 0.0
21/09:00pm 6.5 4.0 4.8 89 0.7 NE 7 7 4 4 1030.5 1030.7 0.0
21/08:30pm 7.0 4.5 4.7 85 1.0 E 7 9 4 5 1030.7 1030.9 0.0
21/08:00pm 7.2 4.3 4.7 84 1.1 ESE 9 11 5 6 1030.7 1030.9 0.0
21/07:30pm 8.5 5.3 5.3 80 1.5 ESE 11 13 6 7 1030.4 1030.6 0.0
21/07:00pm 9.0 5.5 5.4 78 1.6 ESE 13 17 7 9 1030.2 1030.4 0.0
21/06:30pm 9.6 6.2 5.8 77 1.8 ESE 13 17 7 9 1030.0 1030.2 0.0
21/06:00pm 11.0 7.6 6.0 71 2.3 ESE 13 17 7 9 1029.6 1029.8 0.0
21/05:30pm 12.6 9.2 6.0 64 3.2 ESE 13 19 7 10 1029.5 1029.7 0.0
21/05:00pm 13.7 10.7 5.8 59 3.8 ESE 11 15 6 8 1029.3 1029.5 0.0
21/04:30pm 14.5 11.9 6.1 57 4.1 ESE 9 15 5 8 1029.3 1029.5 0.0
21/04:00pm 14.9 12.3 6.0 55 4.3 SE 9 15 5 8 1029.5 1029.7 0.0
21/03:30pm 14.8 11.4 5.9 55 4.3 SE 13 20 7 11 1029.6 1029.8 0.0
21/03:00pm 14.9 11.8 5.7 54 4.4 SE 11 17 6 9 1029.6 1029.8 0.0
21/02:30pm 14.8 12.2 5.9 55 4.3 ESE 9 15 5 8 1029.9 1030.1 0.0
21/02:00pm 15.0 11.7 6.6 57 4.1 SE 13 19 7 10 1030.1 1030.3 0.0
21/01:30pm 14.5 11.5 6.1 57 4.1 ESE 11 19 6 10 1030.4 1030.6 0.0
21/01:00pm 14.2 11.7 6.6 60 3.7 SE 9 19 5 10 1030.9 1031.1 0.0
21/12:30pm 14.2 11.4 6.8 61 3.6 ESE 11 19 6 10 1031.2 1031.4 0.0
21/12:00pm 13.8 10.9 6.4 61 3.6 SE 11 19 6 10 1031.5 1031.7 0.0
21/11:30am 13.7 10.6 5.6 58 3.9 ESE 11 19 6 10 1031.8 1032.0 0.0
21/11:00am 13.2 9.0 5.9 61 3.5 SE 17 22 9 12 1032.1 1032.3 0.0
21/10:30am 12.2 8.2 4.7 60 3.5 ESE 15 26 8 14 1032.1 1032.3 0.0
21/10:00am 12.6 9.0 5.1 60 3.5 ESE 13 19 7 10 1032.0 1032.2 0.0
21/09:30am 11.7 8.0 4.7 62 3.2 ESE 13 19 7 10 1031.7 1031.9 0.0
21/09:00am 11.7 8.5 5.3 65 3.0 ESE 11 20 6 11 1031.6 1031.8 0.0
21/08:30am 10.9 8.7 6.1 72 2.3 SE 7 9 4 5 1031.5 1031.7 0.0
21/08:00am 7.5 6.1 7.4 99 0.0 N 4 4 2 2 1031.2 1031.4 0.0
21/07:30am 5.1 3.2 5.0 99 0.0 N 4 7 2 4 1031.2 1031.4 0.0
21/07:00am 4.6 3.4 4.5 99 0.0 CALM 0 0 0 0 1031.0 1031.2 0.0
21/06:30am 4.6 2.6 4.3 98 0.1 N 4 6 2 3 1030.7 1030.9 0.0
21/06:00am 5.0 3.8 4.7 98 0.1 CALM 0 2 0 1 1030.3 1030.5 0.0
21/05:30am 5.6 4.5 5.3 98 0.1 CALM 0 2 0 1 1030.1 1030.3 0.0
21/05:00am 5.7 4.7 5.4 98 0.1 CALM 0 4 0 2 1030.1 1030.3 0.0
21/04:30am 6.3 5.0 6.2 99 0.0 E 2 4 1 2 1030.0 1030.2 0.0
21/04:00am 5.7 4.7 5.6 99 0.0 CALM 0 4 0 2 1029.8 1030.0 0.0
21/03:30am 5.8 3.7 5.8 100 0.0 NNW 6 7 3 4 1029.6 1029.8 0.0
21/03:00am 5.3 2.9 5.2 99 0.0 NNW 7 7 4 4 1029.9 1030.1 0.0
21/02:30am 5.1 3.2 5.0 99 0.0 NW 4 7 2 4 1030.3 1030.5 0.0
21/02:00am 4.6 2.2 4.5 99 0.0 NNW 6 7 3 4 1030.5 1030.7 0.0
21/01:30am 4.1 1.6 3.8 98 0.1 N 6 7 3 4 1030.2 1030.4 0.0
21/01:00am 4.3 1.8 3.9 97 0.2 N 6 7 3 4 1030.3 1030.5 0.0
21/12:30am 5.0 2.5 4.6 97 0.2 N 7 7 4 4 1030.4 1030.6 0.0
21/12:00am 5.3 3.8 4.9 97 0.2 N 2 4 1 2 1030.4 1030.6 0.0
 
Date/Time
EST
Temp
°C
App
Temp
°C
Dew
Point
Rel
Hum
%
Delta-T
°C
Wind Press
QNH
hPa
Press
MSL
hPa
Rain
since 9 am
mm
Dir
 
Spd
km/h
Gust
km/h
Spd
kts
Gust
kts
20/11:30pm 5.3 3.4 4.7 96 0.3 N 4 4 2 2 1030.3 1030.5 0.0
20/11:00pm 5.8 4.0 5.2 96 0.3 N 4 6 2 3 1030.2 1030.4 0.0
20/10:30pm 6.8 5.1 5.9 94 0.4 NNE 4 4 2 2 1030.2 1030.4 0.0
20/10:00pm 7.5 6.6 6.1 91 0.6 CALM 0 0 0 0 1030.3 1030.5 0.0
20/09:30pm 8.3 7.5 6.6 89 0.8 CALM 0 2 0 1 1030.3 1030.5 0.0
20/09:00pm 8.4 6.8 6.4 87 0.9 ESE 4 4 2 2 1030.4 1030.6 0.0
20/08:30pm 8.8 7.3 6.6 86 1.0 ESE 4 6 2 3 1030.4 1030.6 0.0

Other Formats:

Comma delimited format used in spreadsheet applications
http://www.bom.gov.au/fwo/IDV60801/IDV60801.94863.axf

JavaScript Object Notation format (JSON) in row-major order
http://www.bom.gov.au/fwo/IDV60801/IDV60801.94863.json